sensor_id;sensor_type;location;lat;lon;timestamp;P1;durP1;ratioP1;P2;durP2;ratioP2
54201;SDS011;40108;53.152;5.844;2022-11-15T00:01:40;36.28;;;23.88;;
54201;SDS011;40108;53.152;5.844;2022-11-15T00:04:06;35.10;;;23.17;;
54201;SDS011;40108;53.152;5.844;2022-11-15T00:06:32;37.70;;;25.10;;
54201;SDS011;40108;53.152;5.844;2022-11-15T00:08:58;33.03;;;23.63;;
54201;SDS011;40108;53.152;5.844;2022-11-15T00:11:24;36.97;;;23.50;;
54201;SDS011;40108;53.152;5.844;2022-11-15T00:13:50;33.33;;;23.00;;
54201;SDS011;40108;53.152;5.844;2022-11-15T00:16:16;32.70;;;23.70;;
54201;SDS011;40108;53.152;5.844;2022-11-15T00:18:42;34.25;;;23.58;;
54201;SDS011;40108;53.152;5.844;2022-11-15T00:21:09;33.65;;;22.73;;
54201;SDS011;40108;53.152;5.844;2022-11-15T00:23:36;32.10;;;21.08;;
54201;SDS011;40108;53.152;5.844;2022-11-15T00:26:02;33.10;;;22.40;;
54201;SDS011;40108;53.152;5.844;2022-11-15T00:28:28;29.77;;;19.02;;
54201;SDS011;40108;53.152;5.844;2022-11-15T00:30:59;31.55;;;21.70;;
54201;SDS011;40108;53.152;5.844;2022-11-15T00:33:26;31.00;;;21.45;;
54201;SDS011;40108;53.152;5.844;2022-11-15T00:35:52;28.98;;;20.05;;
54201;SDS011;40108;53.152;5.844;2022-11-15T00:38:17;29.20;;;21.35;;
54201;SDS011;40108;53.152;5.844;2022-11-15T00:40:43;32.22;;;22.38;;
54201;SDS011;40108;53.152;5.844;2022-11-15T00:43:09;30.65;;;22.40;;
54201;SDS011;40108;53.152;5.844;2022-11-15T00:45:34;35.55;;;23.95;;
54201;SDS011;40108;53.152;5.844;2022-11-15T00:48:00;33.63;;;22.73;;
54201;SDS011;40108;53.152;5.844;2022-11-15T00:50:26;30.90;;;21.10;;
54201;SDS011;40108;53.152;5.844;2022-11-15T00:52:51;33.03;;;22.92;;
54201;SDS011;40108;53.152;5.844;2022-11-15T00:55:17;32.80;;;21.45;;
54201;SDS011;40108;53.152;5.844;2022-11-15T00:57:43;30.90;;;20.35;;
54201;SDS011;40108;53.152;5.844;2022-11-15T01:00:10;33.00;;;21.75;;
54201;SDS011;40108;53.152;5.844;2022-11-15T01:02:37;27.05;;;18.92;;
54201;SDS011;40108;53.152;5.844;2022-11-15T01:05:03;29.40;;;20.75;;
54201;SDS011;40108;53.152;5.844;2022-11-15T01:07:29;29.25;;;19.63;;
54201;SDS011;40108;53.152;5.844;2022-11-15T01:09:55;31.02;;;21.67;;
54201;SDS011;40108;53.152;5.844;2022-11-15T01:12:20;35.08;;;23.83;;
54201;SDS011;40108;53.152;5.844;2022-11-15T01:14:46;32.33;;;21.92;;
54201;SDS011;40108;53.152;5.844;2022-11-15T01:17:12;32.97;;;23.30;;
54201;SDS011;40108;53.152;5.844;2022-11-15T01:19:37;33.33;;;21.77;;
54201;SDS011;40108;53.152;5.844;2022-11-15T01:22:03;35.47;;;24.58;;
54201;SDS011;40108;53.152;5.844;2022-11-15T01:24:29;31.70;;;21.25;;
54201;SDS011;40108;53.152;5.844;2022-11-15T01:26:54;27.83;;;18.92;;
54201;SDS011;40108;53.152;5.844;2022-11-15T01:29:20;26.90;;;19.02;;
54201;SDS011;40108;53.152;5.844;2022-11-15T01:31:46;34.10;;;24.55;;
54201;SDS011;40108;53.152;5.844;2022-11-15T01:34:11;26.90;;;18.13;;
54201;SDS011;40108;53.152;5.844;2022-11-15T01:36:37;29.63;;;19.52;;
54201;SDS011;40108;53.152;5.844;2022-11-15T01:39:03;31.27;;;20.85;;
54201;SDS011;40108;53.152;5.844;2022-11-15T01:41:30;36.95;;;25.13;;
54201;SDS011;40108;53.152;5.844;2022-11-15T01:44:25;45.33;;;25.83;;
54201;SDS011;40108;53.152;5.844;2022-11-15T01:47:02;30.02;;;19.92;;
54201;SDS011;40108;53.152;5.844;2022-11-15T01:49:32;36.47;;;21.65;;
54201;SDS011;40108;53.152;5.844;2022-11-15T01:52:00;30.10;;;20.70;;
54201;SDS011;40108;53.152;5.844;2022-11-15T01:54:28;30.38;;;20.02;;
54201;SDS011;40108;53.152;5.844;2022-11-15T01:57:01;42.35;;;26.55;;
54201;SDS011;40108;53.152;5.844;2022-11-15T01:59:31;41.67;;;28.92;;
54201;SDS011;40108;53.152;5.844;2022-11-15T02:01:57;42.10;;;26.55;;
54201;SDS011;40108;53.152;5.844;2022-11-15T02:04:24;41.08;;;23.75;;
54201;SDS011;40108;53.152;5.844;2022-11-15T02:06:52;48.83;;;27.85;;
54201;SDS011;40108;53.152;5.844;2022-11-15T02:09:18;40.92;;;26.38;;
54201;SDS011;40108;53.152;5.844;2022-11-15T02:11:44;40.70;;;27.33;;
54201;SDS011;40108;53.152;5.844;2022-11-15T02:14:12;29.70;;;17.88;;
54201;SDS011;40108;53.152;5.844;2022-11-15T02:24:54;40.92;;;22.25;;
54201;SDS011;40108;53.152;5.844;2022-11-15T02:27:59;42.15;;;25.75;;
54201;SDS011;40108;53.152;5.844;2022-11-15T02:30:45;45.30;;;26.05;;
54201;SDS011;40108;53.152;5.844;2022-11-15T02:33:54;40.92;;;23.73;;
54201;SDS011;40108;53.152;5.844;2022-11-15T02:42:21;38.85;;;22.80;;
54201;SDS011;40108;53.152;5.844;2022-11-15T02:45:11;42.95;;;27.08;;
54201;SDS011;40108;53.152;5.844;2022-11-15T02:47:43;51.83;;;28.20;;
54201;SDS011;40108;53.152;5.844;2022-11-15T02:50:12;45.13;;;26.30;;
54201;SDS011;40108;53.152;5.844;2022-11-15T02:52:44;48.53;;;28.13;;
54201;SDS011;40108;53.152;5.844;2022-11-15T03:01:00;56.67;;;28.10;;
54201;SDS011;40108;53.152;5.844;2022-11-15T03:11:54;72.25;;;34.60;;
54201;SDS011;40108;53.152;5.844;2022-11-15T03:14:25;68.32;;;30.73;;
54201;SDS011;40108;53.152;5.844;2022-11-15T03:19:51;63.42;;;28.65;;
54201;SDS011;40108;53.152;5.844;2022-11-15T03:22:21;74.03;;;31.10;;
54201;SDS011;40108;53.152;5.844;2022-11-15T03:24:54;76.43;;;33.10;;
54201;SDS011;40108;53.152;5.844;2022-11-15T03:27:23;81.00;;;33.47;;
54201;SDS011;40108;53.152;5.844;2022-11-15T03:29:53;80.57;;;33.97;;
54201;SDS011;40108;53.152;5.844;2022-11-15T03:32:26;93.15;;;35.78;;
54201;SDS011;40108;53.152;5.844;2022-11-15T03:40:22;101.20;;;36.88;;
54201;SDS011;40108;53.152;5.844;2022-11-15T03:46:13;103.70;;;36.75;;
54201;SDS011;40108;53.152;5.844;2022-11-15T03:48:46;106.50;;;36.88;;
54201;SDS011;40108;53.152;5.844;2022-11-15T03:51:18;111.53;;;37.28;;
54201;SDS011;40108;53.152;5.844;2022-11-15T03:53:44;94.53;;;33.95;;
54201;SDS011;40108;53.152;5.844;2022-11-15T03:56:10;103.32;;;36.13;;
54201;SDS011;40108;53.152;5.844;2022-11-15T03:58:36;104.30;;;35.97;;
54201;SDS011;40108;53.152;5.844;2022-11-15T04:01:02;96.53;;;34.92;;
54201;SDS011;40108;53.152;5.844;2022-11-15T04:03:28;108.60;;;37.47;;
54201;SDS011;40108;53.152;5.844;2022-11-15T04:05:53;113.63;;;37.08;;
54201;SDS011;40108;53.152;5.844;2022-11-15T04:08:19;101.88;;;37.05;;
54201;SDS011;40108;53.152;5.844;2022-11-15T04:10:45;81.75;;;29.85;;
54201;SDS011;40108;53.152;5.844;2022-11-15T04:13:13;104.88;;;35.92;;
54201;SDS011;40108;53.152;5.844;2022-11-15T04:15:39;105.97;;;37.65;;
54201;SDS011;40108;53.152;5.844;2022-11-15T04:18:05;113.05;;;38.95;;
54201;SDS011;40108;53.152;5.844;2022-11-15T04:20:31;104.70;;;36.22;;
54201;SDS011;40108;53.152;5.844;2022-11-15T04:23:19;79.47;;;31.50;;
54201;SDS011;40108;53.152;5.844;2022-11-15T04:26:09;78.95;;;31.33;;
54201;SDS011;40108;53.152;5.844;2022-11-15T04:28:38;74.30;;;27.90;;
54201;SDS011;40108;53.152;5.844;2022-11-15T04:31:22;79.68;;;30.92;;
54201;SDS011;40108;53.152;5.844;2022-11-15T04:33:48;89.50;;;31.95;;
54201;SDS011;40108;53.152;5.844;2022-11-15T04:36:14;80.10;;;33.00;;
54201;SDS011;40108;53.152;5.844;2022-11-15T04:38:58;82.32;;;31.35;;
54201;SDS011;40108;53.152;5.844;2022-11-15T04:41:24;82.90;;;33.13;;
54201;SDS011;40108;53.152;5.844;2022-11-15T04:43:49;93.20;;;34.20;;
54201;SDS011;40108;53.152;5.844;2022-11-15T04:46:15;85.75;;;33.15;;
54201;SDS011;40108;53.152;5.844;2022-11-15T04:48:41;83.28;;;31.67;;
54201;SDS011;40108;53.152;5.844;2022-11-15T04:51:07;85.25;;;32.00;;
54201;SDS011;40108;53.152;5.844;2022-11-15T04:53:32;86.00;;;31.92;;
54201;SDS011;40108;53.152;5.844;2022-11-15T04:55:58;86.63;;;33.25;;
54201;SDS011;40108;53.152;5.844;2022-11-15T04:58:24;97.45;;;34.88;;
54201;SDS011;40108;53.152;5.844;2022-11-15T05:00:49;95.78;;;32.42;;
54201;SDS011;40108;53.152;5.844;2022-11-15T05:03:15;92.03;;;34.88;;
54201;SDS011;40108;53.152;5.844;2022-11-15T05:06:00;89.03;;;31.75;;
54201;SDS011;40108;53.152;5.844;2022-11-15T05:08:26;97.32;;;33.75;;
54201;SDS011;40108;53.152;5.844;2022-11-15T05:10:52;104.15;;;33.63;;
54201;SDS011;40108;53.152;5.844;2022-11-15T05:13:17;128.68;;;37.03;;
54201;SDS011;40108;53.152;5.844;2022-11-15T05:15:43;115.38;;;37.38;;
54201;SDS011;40108;53.152;5.844;2022-11-15T05:18:09;126.63;;;37.90;;
54201;SDS011;40108;53.152;5.844;2022-11-15T05:20:35;112.82;;;34.72;;
54201;SDS011;40108;53.152;5.844;2022-11-15T05:23:00;125.75;;;38.72;;
54201;SDS011;40108;53.152;5.844;2022-11-15T05:25:26;120.40;;;38.30;;
54201;SDS011;40108;53.152;5.844;2022-11-15T05:27:52;138.48;;;41.72;;
54201;SDS011;40108;53.152;5.844;2022-11-15T05:30:18;109.63;;;35.45;;
54201;SDS011;40108;53.152;5.844;2022-11-15T05:32:44;129.63;;;39.90;;
54201;SDS011;40108;53.152;5.844;2022-11-15T05:35:12;129.18;;;39.85;;
54201;SDS011;40108;53.152;5.844;2022-11-15T05:37:59;143.10;;;41.58;;
54201;SDS011;40108;53.152;5.844;2022-11-15T05:40:25;126.40;;;41.05;;
54201;SDS011;40108;53.152;5.844;2022-11-15T05:42:52;137.95;;;42.92;;
54201;SDS011;40108;53.152;5.844;2022-11-15T05:45:18;130.30;;;39.70;;
54201;SDS011;40108;53.152;5.844;2022-11-15T05:47:44;125.55;;;42.00;;
54201;SDS011;40108;53.152;5.844;2022-11-15T05:50:12;116.07;;;37.97;;
54201;SDS011;40108;53.152;5.844;2022-11-15T05:52:39;147.02;;;43.15;;
54201;SDS011;40108;53.152;5.844;2022-11-15T05:55:05;138.75;;;42.13;;
54201;SDS011;40108;53.152;5.844;2022-11-15T05:57:33;153.63;;;44.38;;
54201;SDS011;40108;53.152;5.844;2022-11-15T05:59:59;137.82;;;41.35;;
54201;SDS011;40108;53.152;5.844;2022-11-15T06:02:25;109.00;;;37.55;;
54201;SDS011;40108;53.152;5.844;2022-11-15T06:04:51;118.63;;;38.70;;
54201;SDS011;40108;53.152;5.844;2022-11-15T06:07:16;118.07;;;39.13;;
54201;SDS011;40108;53.152;5.844;2022-11-15T06:09:42;142.73;;;43.90;;
54201;SDS011;40108;53.152;5.844;2022-11-15T06:12:08;110.15;;;37.83;;
54201;SDS011;40108;53.152;5.844;2022-11-15T06:14:33;98.38;;;35.70;;
54201;SDS011;40108;53.152;5.844;2022-11-15T06:16:59;133.68;;;42.72;;
54201;SDS011;40108;53.152;5.844;2022-11-15T06:19:24;106.28;;;37.75;;
54201;SDS011;40108;53.152;5.844;2022-11-15T06:21:50;77.25;;;31.40;;
54201;SDS011;40108;53.152;5.844;2022-11-15T06:24:16;88.43;;;34.08;;
54201;SDS011;40108;53.152;5.844;2022-11-15T06:26:41;93.43;;;34.95;;
54201;SDS011;40108;53.152;5.844;2022-11-15T06:29:07;95.50;;;38.33;;
54201;SDS011;40108;53.152;5.844;2022-11-15T06:31:33;102.03;;;40.03;;
54201;SDS011;40108;53.152;5.844;2022-11-15T06:33:59;87.18;;;34.55;;
54201;SDS011;40108;53.152;5.844;2022-11-15T06:36:25;97.90;;;37.72;;
54201;SDS011;40108;53.152;5.844;2022-11-15T06:38:51;122.28;;;42.53;;
54201;SDS011;40108;53.152;5.844;2022-11-15T06:41:17;94.03;;;34.50;;
54201;SDS011;40108;53.152;5.844;2022-11-15T06:43:42;70.05;;;29.75;;
54201;SDS011;40108;53.152;5.844;2022-11-15T06:46:08;102.97;;;41.00;;
54201;SDS011;40108;53.152;5.844;2022-11-15T06:48:35;107.65;;;40.33;;
54201;SDS011;40108;53.152;5.844;2022-11-15T06:51:02;95.03;;;36.00;;
54201;SDS011;40108;53.152;5.844;2022-11-15T06:53:29;113.47;;;43.45;;
54201;SDS011;40108;53.152;5.844;2022-11-15T06:55:59;96.13;;;38.92;;
54201;SDS011;40108;53.152;5.844;2022-11-15T06:58:31;88.88;;;36.22;;
54201;SDS011;40108;53.152;5.844;2022-11-15T07:01:04;106.30;;;41.33;;
54201;SDS011;40108;53.152;5.844;2022-11-15T07:03:34;102.40;;;40.80;;
54201;SDS011;40108;53.152;5.844;2022-11-15T07:06:01;94.93;;;37.00;;
54201;SDS011;40108;53.152;5.844;2022-11-15T07:08:27;103.60;;;40.47;;
54201;SDS011;40108;53.152;5.844;2022-11-15T07:10:54;112.57;;;44.97;;
54201;SDS011;40108;53.152;5.844;2022-11-15T07:13:26;81.60;;;32.70;;
54201;SDS011;40108;53.152;5.844;2022-11-15T07:15:53;99.00;;;39.67;;
54201;SDS011;40108;53.152;5.844;2022-11-15T07:18:19;96.28;;;38.15;;
54201;SDS011;40108;53.152;5.844;2022-11-15T07:20:45;100.60;;;42.85;;
54201;SDS011;40108;53.152;5.844;2022-11-15T07:23:11;91.28;;;39.13;;
54201;SDS011;40108;53.152;5.844;2022-11-15T07:25:37;79.85;;;33.17;;
54201;SDS011;40108;53.152;5.844;2022-11-15T07:28:03;106.50;;;42.83;;
54201;SDS011;40108;53.152;5.844;2022-11-15T07:30:28;84.03;;;35.28;;
54201;SDS011;40108;53.152;5.844;2022-11-15T07:32:58;97.13;;;42.60;;
54201;SDS011;40108;53.152;5.844;2022-11-15T07:35:25;91.03;;;37.33;;
54201;SDS011;40108;53.152;5.844;2022-11-15T07:37:59;90.47;;;40.58;;
54201;SDS011;40108;53.152;5.844;2022-11-15T07:40:27;82.25;;;37.47;;
54201;SDS011;40108;53.152;5.844;2022-11-15T07:42:59;74.65;;;36.83;;
54201;SDS011;40108;53.152;5.844;2022-11-15T07:45:29;86.60;;;41.72;;
54201;SDS011;40108;53.152;5.844;2022-11-15T07:47:55;83.13;;;39.88;;
54201;SDS011;40108;53.152;5.844;2022-11-15T07:50:24;82.53;;;39.25;;
54201;SDS011;40108;53.152;5.844;2022-11-15T07:52:57;88.65;;;40.35;;
54201;SDS011;40108;53.152;5.844;2022-11-15T07:55:25;79.25;;;39.65;;
54201;SDS011;40108;53.152;5.844;2022-11-15T07:58:05;74.40;;;36.75;;
54201;SDS011;40108;53.152;5.844;2022-11-15T08:00:32;83.45;;;40.60;;
54201;SDS011;40108;53.152;5.844;2022-11-15T08:03:06;65.28;;;34.97;;
54201;SDS011;40108;53.152;5.844;2022-11-15T08:05:33;67.40;;;35.53;;
54201;SDS011;40108;53.152;5.844;2022-11-15T08:08:00;66.32;;;36.72;;
54201;SDS011;40108;53.152;5.844;2022-11-15T08:10:27;68.97;;;35.97;;
54201;SDS011;40108;53.152;5.844;2022-11-15T08:12:56;53.25;;;30.13;;
54201;SDS011;40108;53.152;5.844;2022-11-15T08:15:23;63.90;;;35.58;;
54201;SDS011;40108;53.152;5.844;2022-11-15T08:17:53;58.78;;;33.22;;
54201;SDS011;40108;53.152;5.844;2022-11-15T08:20:26;63.28;;;34.90;;
54201;SDS011;40108;53.152;5.844;2022-11-15T08:22:59;61.42;;;32.67;;
54201;SDS011;40108;53.152;5.844;2022-11-15T08:25:27;67.75;;;36.40;;
54201;SDS011;40108;53.152;5.844;2022-11-15T08:27:59;66.28;;;36.20;;
54201;SDS011;40108;53.152;5.844;2022-11-15T08:30:27;61.60;;;34.03;;
54201;SDS011;40108;53.152;5.844;2022-11-15T08:32:53;62.25;;;35.65;;
54201;SDS011;40108;53.152;5.844;2022-11-15T08:35:20;52.85;;;31.75;;
54201;SDS011;40108;53.152;5.844;2022-11-15T08:37:46;50.63;;;29.88;;
54201;SDS011;40108;53.152;5.844;2022-11-15T08:40:12;44.65;;;28.95;;
54201;SDS011;40108;53.152;5.844;2022-11-15T08:42:39;49.92;;;29.20;;
54201;SDS011;40108;53.152;5.844;2022-11-15T08:45:05;47.42;;;27.77;;
54201;SDS011;40108;53.152;5.844;2022-11-15T08:47:31;40.42;;;27.80;;
54201;SDS011;40108;53.152;5.844;2022-11-15T08:49:57;51.90;;;31.85;;
54201;SDS011;40108;53.152;5.844;2022-11-15T08:52:22;51.33;;;31.98;;
54201;SDS011;40108;53.152;5.844;2022-11-15T08:54:48;54.08;;;32.70;;
54201;SDS011;40108;53.152;5.844;2022-11-15T08:57:14;53.38;;;30.02;;
54201;SDS011;40108;53.152;5.844;2022-11-15T08:59:40;55.75;;;32.08;;
54201;SDS011;40108;53.152;5.844;2022-11-15T09:02:06;46.63;;;30.38;;
54201;SDS011;40108;53.152;5.844;2022-11-15T09:04:32;45.50;;;29.35;;
54201;SDS011;40108;53.152;5.844;2022-11-15T09:06:57;47.85;;;30.60;;
54201;SDS011;40108;53.152;5.844;2022-11-15T09:09:23;48.88;;;29.83;;
54201;SDS011;40108;53.152;5.844;2022-11-15T09:11:49;44.63;;;28.23;;
54201;SDS011;40108;53.152;5.844;2022-11-15T09:14:15;44.00;;;27.20;;
54201;SDS011;40108;53.152;5.844;2022-11-15T09:16:41;36.65;;;27.63;;
54201;SDS011;40108;53.152;5.844;2022-11-15T09:19:07;40.50;;;24.65;;
54201;SDS011;40108;53.152;5.844;2022-11-15T09:21:32;39.95;;;26.60;;
54201;SDS011;40108;53.152;5.844;2022-11-15T09:23:58;39.42;;;26.05;;
54201;SDS011;40108;53.152;5.844;2022-11-15T09:26:24;37.58;;;22.77;;
54201;SDS011;40108;53.152;5.844;2022-11-15T09:28:50;44.13;;;28.92;;
54201;SDS011;40108;53.152;5.844;2022-11-15T09:31:16;43.63;;;27.98;;
54201;SDS011;40108;53.152;5.844;2022-11-15T09:33:45;44.08;;;28.88;;
54201;SDS011;40108;53.152;5.844;2022-11-15T09:36:11;33.25;;;22.30;;
54201;SDS011;40108;53.152;5.844;2022-11-15T09:38:37;32.88;;;21.40;;
54201;SDS011;40108;53.152;5.844;2022-11-15T09:49:16;35.08;;;25.63;;
54201;SDS011;40108;53.152;5.844;2022-11-15T09:51:47;37.80;;;25.13;;
54201;SDS011;40108;53.152;5.844;2022-11-15T09:54:29;38.70;;;26.55;;
54201;SDS011;40108;53.152;5.844;2022-11-15T10:04:59;41.25;;;26.25;;
54201;SDS011;40108;53.152;5.844;2022-11-15T10:07:28;40.78;;;28.25;;
54201;SDS011;40108;53.152;5.844;2022-11-15T10:12:49;38.25;;;25.67;;
54201;SDS011;40108;53.152;5.844;2022-11-15T10:15:17;39.47;;;27.40;;
54201;SDS011;40108;53.152;5.844;2022-11-15T10:20:29;49.45;;;27.70;;
54201;SDS011;40108;53.152;5.844;2022-11-15T10:22:56;37.78;;;26.90;;
54201;SDS011;40108;53.152;5.844;2022-11-15T10:25:26;34.10;;;25.13;;
54201;SDS011;40108;53.152;5.844;2022-11-15T10:27:55;38.47;;;25.50;;
54201;SDS011;40108;53.152;5.844;2022-11-15T10:30:23;41.38;;;26.55;;
54201;SDS011;40108;53.152;5.844;2022-11-15T10:32:55;35.17;;;24.27;;
54201;SDS011;40108;53.152;5.844;2022-11-15T10:35:29;39.75;;;26.42;;
54201;SDS011;40108;53.152;5.844;2022-11-15T10:38:08;36.03;;;23.23;;
54201;SDS011;40108;53.152;5.844;2022-11-15T10:40:35;31.58;;;22.63;;
54201;SDS011;40108;53.152;5.844;2022-11-15T10:43:11;29.92;;;19.65;;
54201;SDS011;40108;53.152;5.844;2022-11-15T10:45:40;36.13;;;23.52;;
54201;SDS011;40108;53.152;5.844;2022-11-15T10:50:39;32.30;;;21.02;;
54201;SDS011;40108;53.152;5.844;2022-11-15T10:55:58;33.13;;;22.55;;
54201;SDS011;40108;53.152;5.844;2022-11-15T10:58:42;30.42;;;22.20;;
54201;SDS011;40108;53.152;5.844;2022-11-15T11:01:33;34.13;;;21.63;;
54201;SDS011;40108;53.152;5.844;2022-11-15T11:04:10;33.58;;;21.67;;
54201;SDS011;40108;53.152;5.844;2022-11-15T11:07:19;32.72;;;21.40;;
54201;SDS011;40108;53.152;5.844;2022-11-15T11:11:58;27.83;;;19.00;;
54201;SDS011;40108;53.152;5.844;2022-11-15T11:14:29;29.83;;;17.38;;
54201;SDS011;40108;53.152;5.844;2022-11-15T11:19:39;20.30;;;14.20;;
54201;SDS011;40108;53.152;5.844;2022-11-15T11:22:16;19.70;;;14.80;;
54201;SDS011;40108;53.152;5.844;2022-11-15T11:25:04;24.65;;;16.25;;
54201;SDS011;40108;53.152;5.844;2022-11-15T11:33:29;16.55;;;12.38;;
54201;SDS011;40108;53.152;5.844;2022-11-15T11:44:23;19.70;;;13.13;;
54201;SDS011;40108;53.152;5.844;2022-11-15T11:47:30;18.23;;;13.10;;
54201;SDS011;40108;53.152;5.844;2022-11-15T11:50:18;21.30;;;13.13;;
54201;SDS011;40108;53.152;5.844;2022-11-15T11:52:53;13.45;;;10.23;;
54201;SDS011;40108;53.152;5.844;2022-11-15T11:58:09;18.33;;;13.15;;
54201;SDS011;40108;53.152;5.844;2022-11-15T12:00:41;15.48;;;11.65;;
54201;SDS011;40108;53.152;5.844;2022-11-15T12:03:26;17.65;;;11.98;;
54201;SDS011;40108;53.152;5.844;2022-11-15T12:06:04;18.05;;;10.65;;
54201;SDS011;40108;53.152;5.844;2022-11-15T12:14:11;17.40;;;10.20;;
54201;SDS011;40108;53.152;5.844;2022-11-15T12:16:44;16.45;;;10.43;;
54201;SDS011;40108;53.152;5.844;2022-11-15T12:19:10;15.05;;;9.55;;
54201;SDS011;40108;53.152;5.844;2022-11-15T12:21:42;13.32;;;8.93;;
54201;SDS011;40108;53.152;5.844;2022-11-15T12:24:28;11.85;;;8.75;;
54201;SDS011;40108;53.152;5.844;2022-11-15T12:27:03;12.55;;;9.95;;
54201;SDS011;40108;53.152;5.844;2022-11-15T12:29:41;10.83;;;6.93;;
54201;SDS011;40108;53.152;5.844;2022-11-15T12:34:51;9.80;;;5.32;;
54201;SDS011;40108;53.152;5.844;2022-11-15T12:40:24;8.52;;;6.63;;
54201;SDS011;40108;53.152;5.844;2022-11-15T12:43:07;9.88;;;6.57;;
54201;SDS011;40108;53.152;5.844;2022-11-15T12:45:40;11.48;;;5.63;;
54201;SDS011;40108;53.152;5.844;2022-11-15T13:06:46;5.88;;;3.03;;
54201;SDS011;40108;53.152;5.844;2022-11-15T13:12:03;6.15;;;3.00;;
54201;SDS011;40108;53.152;5.844;2022-11-15T13:19:43;3.88;;;2.75;;
54201;SDS011;40108;53.152;5.844;2022-11-15T13:22:12;3.85;;;1.98;;
54201;SDS011;40108;53.152;5.844;2022-11-15T13:24:56;4.50;;;2.22;;
54201;SDS011;40108;53.152;5.844;2022-11-15T13:27:22;5.78;;;2.70;;
54201;SDS011;40108;53.152;5.844;2022-11-15T13:29:48;4.78;;;2.58;;
54201;SDS011;40108;53.152;5.844;2022-11-15T13:32:14;4.90;;;2.85;;
54201;SDS011;40108;53.152;5.844;2022-11-15T13:34:44;3.97;;;2.88;;
54201;SDS011;40108;53.152;5.844;2022-11-15T13:39:47;7.00;;;3.10;;
54201;SDS011;40108;53.152;5.844;2022-11-15T13:42:14;5.25;;;3.22;;
54201;SDS011;40108;53.152;5.844;2022-11-15T13:45:01;5.57;;;2.97;;
54201;SDS011;40108;53.152;5.844;2022-11-15T13:47:29;5.32;;;3.35;;
54201;SDS011;40108;53.152;5.844;2022-11-15T13:49:58;7.18;;;3.88;;
54201;SDS011;40108;53.152;5.844;2022-11-15T13:52:27;6.30;;;3.80;;
54201;SDS011;40108;53.152;5.844;2022-11-15T13:54:58;4.50;;;3.17;;
54201;SDS011;40108;53.152;5.844;2022-11-15T14:02:55;5.32;;;3.33;;
54201;SDS011;40108;53.152;5.844;2022-11-15T14:05:23;5.35;;;2.97;;
54201;SDS011;40108;53.152;5.844;2022-11-15T14:07:57;6.50;;;3.25;;
54201;SDS011;40108;53.152;5.844;2022-11-15T14:10:29;5.15;;;3.05;;
54201;SDS011;40108;53.152;5.844;2022-11-15T14:12:57;4.32;;;3.13;;
54201;SDS011;40108;53.152;5.844;2022-11-15T14:15:31;5.05;;;2.83;;
54201;SDS011;40108;53.152;5.844;2022-11-15T14:17:59;4.50;;;2.47;;
54201;SDS011;40108;53.152;5.844;2022-11-15T14:22:53;5.15;;;2.50;;
54201;SDS011;40108;53.152;5.844;2022-11-15T14:25:51;5.68;;;2.70;;
54201;SDS011;40108;53.152;5.844;2022-11-15T14:30:48;6.38;;;3.03;;
54201;SDS011;40108;53.152;5.844;2022-11-15T14:33:24;4.40;;;3.00;;
54201;SDS011;40108;53.152;5.844;2022-11-15T14:35:51;5.97;;;2.83;;
54201;SDS011;40108;53.152;5.844;2022-11-15T14:38:17;6.70;;;3.15;;
54201;SDS011;40108;53.152;5.844;2022-11-15T14:56:14;4.20;;;2.50;;
54201;SDS011;40108;53.152;5.844;2022-11-15T14:58:41;5.03;;;3.40;;
54201;SDS011;40108;53.152;5.844;2022-11-15T15:01:16;7.70;;;3.20;;
54201;SDS011;40108;53.152;5.844;2022-11-15T15:03:45;5.53;;;4.20;;
54201;SDS011;40108;53.152;5.844;2022-11-15T15:06:10;5.95;;;3.10;;
54201;SDS011;40108;53.152;5.844;2022-11-15T15:08:38;7.25;;;3.60;;
54201;SDS011;40108;53.152;5.844;2022-11-15T15:11:08;7.80;;;3.40;;
54201;SDS011;40108;53.152;5.844;2022-11-15T15:13:56;4.93;;;2.55;;
54201;SDS011;40108;53.152;5.844;2022-11-15T15:16:25;6.35;;;3.05;;
54201;SDS011;40108;53.152;5.844;2022-11-15T15:18:52;6.93;;;2.60;;
54201;SDS011;40108;53.152;5.844;2022-11-15T15:21:25;5.15;;;2.35;;
54201;SDS011;40108;53.152;5.844;2022-11-15T15:23:56;4.18;;;2.97;;
54201;SDS011;40108;53.152;5.844;2022-11-15T15:26:24;3.42;;;2.33;;
54201;SDS011;40108;53.152;5.844;2022-11-15T15:29:06;6.28;;;3.20;;
54201;SDS011;40108;53.152;5.844;2022-11-15T15:31:40;3.83;;;2.65;;
54201;SDS011;40108;53.152;5.844;2022-11-15T15:34:06;4.38;;;2.42;;
54201;SDS011;40108;53.152;5.844;2022-11-15T15:36:31;8.00;;;2.85;;
54201;SDS011;40108;53.152;5.844;2022-11-15T15:38:57;6.32;;;3.17;;
54201;SDS011;40108;53.152;5.844;2022-11-15T15:41:29;5.78;;;3.30;;
54201;SDS011;40108;53.152;5.844;2022-11-15T15:43:54;10.52;;;3.60;;
54201;SDS011;40108;53.152;5.844;2022-11-15T15:46:20;5.38;;;2.88;;
54201;SDS011;40108;53.152;5.844;2022-11-15T15:48:46;5.57;;;3.30;;
54201;SDS011;40108;53.152;5.844;2022-11-15T15:51:12;5.93;;;3.60;;
54201;SDS011;40108;53.152;5.844;2022-11-15T15:53:38;2.92;;;2.08;;
54201;SDS011;40108;53.152;5.844;2022-11-15T15:56:04;5.32;;;3.53;;
54201;SDS011;40108;53.152;5.844;2022-11-15T15:58:33;3.13;;;2.10;;
54201;SDS011;40108;53.152;5.844;2022-11-15T16:00:59;4.18;;;1.77;;
54201;SDS011;40108;53.152;5.844;2022-11-15T16:03:25;6.35;;;2.05;;
54201;SDS011;40108;53.152;5.844;2022-11-15T16:05:52;3.47;;;1.88;;
54201;SDS011;40108;53.152;5.844;2022-11-15T16:08:19;4.38;;;2.15;;
54201;SDS011;40108;53.152;5.844;2022-11-15T16:10:46;2.83;;;1.80;;
54201;SDS011;40108;53.152;5.844;2022-11-15T16:13:12;4.18;;;2.10;;
54201;SDS011;40108;53.152;5.844;2022-11-15T16:15:38;3.22;;;2.22;;
54201;SDS011;40108;53.152;5.844;2022-11-15T16:18:04;2.92;;;2.20;;
54201;SDS011;40108;53.152;5.844;2022-11-15T16:23:12;2.53;;;2.10;;
54201;SDS011;40108;53.152;5.844;2022-11-15T16:25:47;3.58;;;2.55;;
54201;SDS011;40108;53.152;5.844;2022-11-15T16:28:16;3.45;;;2.90;;
54201;SDS011;40108;53.152;5.844;2022-11-15T16:30:46;8.18;;;4.70;;
54201;SDS011;40108;53.152;5.844;2022-11-15T16:33:12;11.55;;;7.03;;
54201;SDS011;40108;53.152;5.844;2022-11-15T16:35:38;6.88;;;4.63;;
54201;SDS011;40108;53.152;5.844;2022-11-15T16:38:17;3.95;;;2.88;;
54201;SDS011;40108;53.152;5.844;2022-11-15T16:40:43;5.85;;;3.42;;
54201;SDS011;40108;53.152;5.844;2022-11-15T16:43:11;7.47;;;4.22;;
54201;SDS011;40108;53.152;5.844;2022-11-15T16:45:37;5.78;;;4.50;;
54201;SDS011;40108;53.152;5.844;2022-11-15T16:48:03;5.82;;;3.90;;
54201;SDS011;40108;53.152;5.844;2022-11-15T16:50:33;5.32;;;3.80;;
54201;SDS011;40108;53.152;5.844;2022-11-15T16:53:05;6.13;;;3.75;;
54201;SDS011;40108;53.152;5.844;2022-11-15T16:55:31;5.20;;;3.03;;
54201;SDS011;40108;53.152;5.844;2022-11-15T16:57:57;6.28;;;3.70;;
54201;SDS011;40108;53.152;5.844;2022-11-15T17:00:23;5.25;;;3.80;;
54201;SDS011;40108;53.152;5.844;2022-11-15T17:02:49;5.40;;;3.53;;
54201;SDS011;40108;53.152;5.844;2022-11-15T17:05:17;7.53;;;4.60;;
54201;SDS011;40108;53.152;5.844;2022-11-15T17:07:45;5.20;;;3.55;;
54201;SDS011;40108;53.152;5.844;2022-11-15T17:10:18;5.80;;;4.13;;
54201;SDS011;40108;53.152;5.844;2022-11-15T17:12:45;6.40;;;3.92;;
54201;SDS011;40108;53.152;5.844;2022-11-15T17:15:13;4.30;;;3.90;;
54201;SDS011;40108;53.152;5.844;2022-11-15T17:17:39;6.82;;;3.92;;